sensor_id;sensor_type;location;lat;lon;timestamp;P1;durP1;ratioP1;P2;durP2;ratioP2
39930;SDS011;26635;-35.248;149.138;2022-11-23T00:01:38;1.75;;;0.20;;
39930;SDS011;26635;-35.248;149.138;2022-11-23T00:04:11;1.73;;;0.20;;
39930;SDS011;26635;-35.248;149.138;2022-11-23T00:06:42;1.48;;;0.20;;
39930;SDS011;26635;-35.248;149.138;2022-11-23T00:09:13;0.68;;;0.20;;
39930;SDS011;26635;-35.248;149.138;2022-11-23T00:11:43;1.20;;;0.20;;
39930;SDS011;26635;-35.248;149.138;2022-11-23T00:14:15;1.45;;;0.15;;
39930;SDS011;26635;-35.248;149.138;2022-11-23T00:16:46;1.88;;;1.17;;
39930;SDS011;26635;-35.248;149.138;2022-11-23T00:19:22;1.55;;;0.30;;
39930;SDS011;26635;-35.248;149.138;2022-11-23T00:21:54;1.42;;;0.35;;
39930;SDS011;26635;-35.248;149.138;2022-11-23T00:24:24;0.90;;;0.40;;
39930;SDS011;26635;-35.248;149.138;2022-11-23T00:26:55;2.13;;;0.55;;
39930;SDS011;26635;-35.248;149.138;2022-11-23T00:29:26;2.38;;;0.20;;
39930;SDS011;26635;-35.248;149.138;2022-11-23T00:31:58;0.77;;;0.10;;
39930;SDS011;26635;-35.248;149.138;2022-11-23T00:34:29;6.05;;;0.60;;
39930;SDS011;26635;-35.248;149.138;2022-11-23T00:37:01;1.95;;;0.30;;
39930;SDS011;26635;-35.248;149.138;2022-11-23T00:39:32;3.40;;;0.20;;
39930;SDS011;26635;-35.248;149.138;2022-11-23T00:42:03;1.35;;;0.30;;
39930;SDS011;26635;-35.248;149.138;2022-11-23T00:44:34;2.17;;;0.30;;
39930;SDS011;26635;-35.248;149.138;2022-11-23T00:47:05;0.93;;;0.20;;
39930;SDS011;26635;-35.248;149.138;2022-11-23T00:49:37;0.85;;;0.20;;
39930;SDS011;26635;-35.248;149.138;2022-11-23T00:52:08;0.90;;;0.20;;
39930;SDS011;26635;-35.248;149.138;2022-11-23T00:54:39;2.17;;;0.25;;
39930;SDS011;26635;-35.248;149.138;2022-11-23T00:57:09;0.85;;;0.20;;
39930;SDS011;26635;-35.248;149.138;2022-11-23T00:59:40;2.95;;;0.52;;
39930;SDS011;26635;-35.248;149.138;2022-11-23T01:02:11;0.60;;;0.10;;
39930;SDS011;26635;-35.248;149.138;2022-11-23T01:04:42;1.50;;;0.22;;
39930;SDS011;26635;-35.248;149.138;2022-11-23T01:07:13;0.52;;;0.15;;
39930;SDS011;26635;-35.248;149.138;2022-11-23T01:09:43;1.90;;;0.20;;
39930;SDS011;26635;-35.248;149.138;2022-11-23T01:12:14;0.98;;;0.20;;
39930;SDS011;26635;-35.248;149.138;2022-11-23T01:14:45;0.25;;;0.10;;
39930;SDS011;26635;-35.248;149.138;2022-11-23T01:17:15;0.55;;;0.20;;
39930;SDS011;26635;-35.248;149.138;2022-11-23T01:19:46;1.65;;;0.20;;
39930;SDS011;26635;-35.248;149.138;2022-11-23T01:22:17;1.65;;;0.15;;
39930;SDS011;26635;-35.248;149.138;2022-11-23T01:24:48;1.10;;;0.08;;
39930;SDS011;26635;-35.248;149.138;2022-11-23T01:27:19;2.97;;;0.73;;
39930;SDS011;26635;-35.248;149.138;2022-11-23T01:29:50;1.48;;;0.10;;
39930;SDS011;26635;-35.248;149.138;2022-11-23T01:32:21;0.95;;;0.20;;
39930;SDS011;26635;-35.248;149.138;2022-11-23T01:34:52;1.60;;;0.10;;
39930;SDS011;26635;-35.248;149.138;2022-11-23T01:37:23;1.17;;;0.45;;
39930;SDS011;26635;-35.248;149.138;2022-11-23T01:39:54;0.43;;;0.20;;
39930;SDS011;26635;-35.248;149.138;2022-11-23T01:42:38;1.70;;;0.63;;
39930;SDS011;26635;-35.248;149.138;2022-11-23T01:48:15;1.38;;;0.20;;
39930;SDS011;26635;-35.248;149.138;2022-11-23T01:50:51;1.17;;;0.35;;
39930;SDS011;26635;-35.248;149.138;2022-11-23T01:53:23;0.45;;;0.13;;
39930;SDS011;26635;-35.248;149.138;2022-11-23T01:55:57;1.02;;;0.10;;
39930;SDS011;26635;-35.248;149.138;2022-11-23T01:58:32;0.10;;;0.10;;
39930;SDS011;26635;-35.248;149.138;2022-11-23T02:01:07;2.08;;;0.32;;
39930;SDS011;26635;-35.248;149.138;2022-11-23T02:03:38;0.60;;;0.10;;
39930;SDS011;26635;-35.248;149.138;2022-11-23T02:06:20;0.45;;;0.17;;
39930;SDS011;26635;-35.248;149.138;2022-11-23T02:08:53;0.38;;;0.10;;
39930;SDS011;26635;-35.248;149.138;2022-11-23T02:11:26;1.33;;;0.20;;
39930;SDS011;26635;-35.248;149.138;2022-11-23T02:13:57;0.17;;;0.10;;
39930;SDS011;26635;-35.248;149.138;2022-11-23T02:16:28;0.57;;;0.10;;
39930;SDS011;26635;-35.248;149.138;2022-11-23T02:18:59;0.63;;;0.20;;
39930;SDS011;26635;-35.248;149.138;2022-11-23T02:21:30;0.52;;;0.10;;
39930;SDS011;26635;-35.248;149.138;2022-11-23T02:24:35;0.50;;;0.20;;
39930;SDS011;26635;-35.248;149.138;2022-11-23T02:27:04;1.30;;;0.32;;
39930;SDS011;26635;-35.248;149.138;2022-11-23T02:29:35;0.65;;;0.08;;
39930;SDS011;26635;-35.248;149.138;2022-11-23T02:32:10;0.28;;;0.10;;
39930;SDS011;26635;-35.248;149.138;2022-11-23T02:34:42;1.70;;;0.10;;
39930;SDS011;26635;-35.248;149.138;2022-11-23T02:37:13;1.33;;;0.10;;
39930;SDS011;26635;-35.248;149.138;2022-11-23T02:39:47;0.10;;;0.10;;
39930;SDS011;26635;-35.248;149.138;2022-11-23T02:42:20;0.10;;;0.00;;
39930;SDS011;26635;-35.248;149.138;2022-11-23T02:45:02;2.40;;;0.20;;
39930;SDS011;26635;-35.248;149.138;2022-11-23T02:47:53;0.35;;;0.20;;
39930;SDS011;26635;-35.248;149.138;2022-11-23T02:50:24;0.85;;;0.10;;
39930;SDS011;26635;-35.248;149.138;2022-11-23T02:52:56;0.43;;;0.10;;
39930;SDS011;26635;-35.248;149.138;2022-11-23T02:55:27;0.55;;;0.10;;
39930;SDS011;26635;-35.248;149.138;2022-11-23T02:57:58;0.30;;;0.10;;
39930;SDS011;26635;-35.248;149.138;2022-11-23T03:00:31;0.65;;;0.10;;
39930;SDS011;26635;-35.248;149.138;2022-11-23T03:03:04;0.57;;;0.08;;
39930;SDS011;26635;-35.248;149.138;2022-11-23T03:05:36;0.75;;;0.22;;
39930;SDS011;26635;-35.248;149.138;2022-11-23T03:08:07;0.30;;;0.10;;
39930;SDS011;26635;-35.248;149.138;2022-11-23T03:10:38;0.77;;;0.10;;
39930;SDS011;26635;-35.248;149.138;2022-11-23T03:13:09;0.45;;;0.10;;
39930;SDS011;26635;-35.248;149.138;2022-11-23T03:15:40;0.85;;;0.10;;
39930;SDS011;26635;-35.248;149.138;2022-11-23T03:18:11;0.30;;;0.20;;
39930;SDS011;26635;-35.248;149.138;2022-11-23T03:20:41;0.75;;;0.20;;
39930;SDS011;26635;-35.248;149.138;2022-11-23T03:23:13;0.10;;;0.10;;
39930;SDS011;26635;-35.248;149.138;2022-11-23T03:25:44;1.08;;;0.25;;
39930;SDS011;26635;-35.248;149.138;2022-11-23T03:28:14;0.28;;;0.10;;
39930;SDS011;26635;-35.248;149.138;2022-11-23T03:30:45;0.85;;;0.00;;
39930;SDS011;26635;-35.248;149.138;2022-11-23T03:33:17;1.15;;;0.10;;
39930;SDS011;26635;-35.248;149.138;2022-11-23T03:35:49;0.60;;;0.10;;
39930;SDS011;26635;-35.248;149.138;2022-11-23T03:38:20;0.57;;;0.10;;
39930;SDS011;26635;-35.248;149.138;2022-11-23T03:41:15;0.63;;;0.10;;
39930;SDS011;26635;-35.248;149.138;2022-11-23T03:43:56;0.10;;;0.10;;
39930;SDS011;26635;-35.248;149.138;2022-11-23T03:46:26;1.15;;;0.55;;
39930;SDS011;26635;-35.248;149.138;2022-11-23T03:48:57;0.20;;;0.10;;
39930;SDS011;26635;-35.248;149.138;2022-11-23T03:51:28;0.57;;;0.20;;
39930;SDS011;26635;-35.248;149.138;2022-11-23T03:53:59;2.28;;;0.25;;
39930;SDS011;26635;-35.248;149.138;2022-11-23T03:56:30;0.43;;;0.10;;
39930;SDS011;26635;-35.248;149.138;2022-11-23T03:59:05;0.20;;;0.10;;
39930;SDS011;26635;-35.248;149.138;2022-11-23T04:01:36;0.55;;;0.10;;
39930;SDS011;26635;-35.248;149.138;2022-11-23T04:04:07;0.82;;;0.15;;
39930;SDS011;26635;-35.248;149.138;2022-11-23T04:06:38;0.45;;;0.13;;
39930;SDS011;26635;-35.248;149.138;2022-11-23T04:09:10;0.85;;;0.10;;
39930;SDS011;26635;-35.248;149.138;2022-11-23T04:11:44;0.85;;;0.10;;
39930;SDS011;26635;-35.248;149.138;2022-11-23T04:14:17;0.35;;;0.10;;
39930;SDS011;26635;-35.248;149.138;2022-11-23T04:16:49;1.98;;;0.30;;
39930;SDS011;26635;-35.248;149.138;2022-11-23T04:19:21;1.08;;;0.10;;
39930;SDS011;26635;-35.248;149.138;2022-11-23T04:21:53;1.17;;;0.03;;
39930;SDS011;26635;-35.248;149.138;2022-11-23T04:24:26;1.25;;;0.10;;
39930;SDS011;26635;-35.248;149.138;2022-11-23T04:27:01;0.25;;;0.10;;
39930;SDS011;26635;-35.248;149.138;2022-11-23T04:29:32;0.08;;;0.08;;
39930;SDS011;26635;-35.248;149.138;2022-11-23T04:32:03;0.30;;;0.10;;
39930;SDS011;26635;-35.248;149.138;2022-11-23T04:34:34;0.17;;;0.15;;
39930;SDS011;26635;-35.248;149.138;2022-11-23T04:37:05;0.00;;;0.00;;
39930;SDS011;26635;-35.248;149.138;2022-11-23T04:39:39;0.85;;;0.00;;
39930;SDS011;26635;-35.248;149.138;2022-11-23T04:42:10;0.57;;;0.03;;
39930;SDS011;26635;-35.248;149.138;2022-11-23T04:44:43;0.20;;;0.20;;
39930;SDS011;26635;-35.248;149.138;2022-11-23T04:47:14;0.45;;;0.10;;
39930;SDS011;26635;-35.248;149.138;2022-11-23T04:49:46;1.67;;;0.10;;
39930;SDS011;26635;-35.248;149.138;2022-11-23T04:52:17;0.10;;;0.10;;
39930;SDS011;26635;-35.248;149.138;2022-11-23T04:54:49;0.00;;;0.00;;
39930;SDS011;26635;-35.248;149.138;2022-11-23T04:57:19;0.20;;;0.00;;
39930;SDS011;26635;-35.248;149.138;2022-11-23T04:59:50;2.17;;;0.10;;
39930;SDS011;26635;-35.248;149.138;2022-11-23T05:02:21;1.02;;;0.10;;
39930;SDS011;26635;-35.248;149.138;2022-11-23T05:04:53;0.82;;;0.05;;
39930;SDS011;26635;-35.248;149.138;2022-11-23T05:07:24;0.30;;;0.15;;
39930;SDS011;26635;-35.248;149.138;2022-11-23T05:09:56;0.98;;;0.08;;
39930;SDS011;26635;-35.248;149.138;2022-11-23T05:12:27;0.10;;;0.00;;
39930;SDS011;26635;-35.248;149.138;2022-11-23T05:14:58;0.05;;;0.00;;
39930;SDS011;26635;-35.248;149.138;2022-11-23T05:17:30;1.45;;;0.10;;
39930;SDS011;26635;-35.248;149.138;2022-11-23T05:20:02;0.17;;;0.05;;
39930;SDS011;26635;-35.248;149.138;2022-11-23T05:22:34;0.00;;;0.00;;
39930;SDS011;26635;-35.248;149.138;2022-11-23T05:25:05;0.38;;;0.10;;
39930;SDS011;26635;-35.248;149.138;2022-11-23T05:27:37;0.22;;;0.10;;
39930;SDS011;26635;-35.248;149.138;2022-11-23T05:30:08;0.30;;;0.20;;
39930;SDS011;26635;-35.248;149.138;2022-11-23T05:32:40;0.32;;;0.10;;
39930;SDS011;26635;-35.248;149.138;2022-11-23T05:35:11;0.30;;;0.10;;
39930;SDS011;26635;-35.248;149.138;2022-11-23T05:37:42;1.73;;;1.00;;
39930;SDS011;26635;-35.248;149.138;2022-11-23T05:40:14;1.98;;;0.45;;
39930;SDS011;26635;-35.248;149.138;2022-11-23T05:42:45;0.30;;;0.10;;
39930;SDS011;26635;-35.248;149.138;2022-11-23T05:45:15;0.10;;;0.10;;
39930;SDS011;26635;-35.248;149.138;2022-11-23T05:47:50;0.47;;;0.32;;
39930;SDS011;26635;-35.248;149.138;2022-11-23T05:50:23;2.45;;;0.10;;
39930;SDS011;26635;-35.248;149.138;2022-11-23T05:52:56;0.68;;;0.10;;
39930;SDS011;26635;-35.248;149.138;2022-11-23T05:55:28;1.20;;;0.30;;
39930;SDS011;26635;-35.248;149.138;2022-11-23T05:58:00;0.20;;;0.10;;
39930;SDS011;26635;-35.248;149.138;2022-11-23T06:00:31;0.13;;;0.10;;
39930;SDS011;26635;-35.248;149.138;2022-11-23T06:03:03;0.00;;;0.00;;
39930;SDS011;26635;-35.248;149.138;2022-11-23T06:05:35;0.30;;;0.10;;
39930;SDS011;26635;-35.248;149.138;2022-11-23T06:08:07;0.20;;;0.10;;
39930;SDS011;26635;-35.248;149.138;2022-11-23T06:10:38;1.73;;;0.10;;
39930;SDS011;26635;-35.248;149.138;2022-11-23T06:13:09;0.95;;;0.00;;
39930;SDS011;26635;-35.248;149.138;2022-11-23T06:15:42;0.75;;;0.05;;
39930;SDS011;26635;-35.248;149.138;2022-11-23T06:18:14;0.20;;;0.10;;
39930;SDS011;26635;-35.248;149.138;2022-11-23T06:20:45;0.25;;;0.03;;
39930;SDS011;26635;-35.248;149.138;2022-11-23T06:23:16;0.45;;;0.10;;
39930;SDS011;26635;-35.248;149.138;2022-11-23T06:25:47;0.13;;;0.10;;
39930;SDS011;26635;-35.248;149.138;2022-11-23T06:28:18;0.52;;;0.10;;
39930;SDS011;26635;-35.248;149.138;2022-11-23T06:30:50;0.40;;;0.10;;
39930;SDS011;26635;-35.248;149.138;2022-11-23T06:33:20;0.43;;;0.10;;
39930;SDS011;26635;-35.248;149.138;2022-11-23T06:35:52;0.35;;;0.10;;
39930;SDS011;26635;-35.248;149.138;2022-11-23T06:38:24;1.75;;;0.10;;
39930;SDS011;26635;-35.248;149.138;2022-11-23T06:41:01;1.38;;;0.10;;
39930;SDS011;26635;-35.248;149.138;2022-11-23T06:43:33;1.05;;;0.00;;
39930;SDS011;26635;-35.248;149.138;2022-11-23T06:46:04;1.65;;;0.15;;
39930;SDS011;26635;-35.248;149.138;2022-11-23T06:48:35;0.00;;;0.00;;
39930;SDS011;26635;-35.248;149.138;2022-11-23T06:51:07;0.00;;;0.00;;
39930;SDS011;26635;-35.248;149.138;2022-11-23T06:53:41;0.17;;;0.03;;
39930;SDS011;26635;-35.248;149.138;2022-11-23T06:56:12;0.10;;;0.10;;
39930;SDS011;26635;-35.248;149.138;2022-11-23T06:58:44;2.85;;;0.10;;
39930;SDS011;26635;-35.248;149.138;2022-11-23T07:01:14;0.75;;;0.10;;
39930;SDS011;26635;-35.248;149.138;2022-11-23T07:03:45;0.32;;;0.10;;
39930;SDS011;26635;-35.248;149.138;2022-11-23T07:06:16;0.65;;;0.10;;
39930;SDS011;26635;-35.248;149.138;2022-11-23T07:08:48;0.75;;;0.10;;
39930;SDS011;26635;-35.248;149.138;2022-11-23T07:11:20;0.40;;;0.28;;
39930;SDS011;26635;-35.248;149.138;2022-11-23T07:13:51;0.10;;;0.10;;
39930;SDS011;26635;-35.248;149.138;2022-11-23T07:16:21;0.47;;;0.30;;
39930;SDS011;26635;-35.248;149.138;2022-11-23T07:18:52;0.10;;;0.08;;
39930;SDS011;26635;-35.248;149.138;2022-11-23T07:21:24;0.50;;;0.15;;
39930;SDS011;26635;-35.248;149.138;2022-11-23T07:23:55;0.55;;;0.20;;
39930;SDS011;26635;-35.248;149.138;2022-11-23T07:26:25;0.30;;;0.10;;
39930;SDS011;26635;-35.248;149.138;2022-11-23T07:28:56;0.75;;;0.15;;
39930;SDS011;26635;-35.248;149.138;2022-11-23T07:31:28;1.25;;;0.10;;
39930;SDS011;26635;-35.248;149.138;2022-11-23T07:33:59;1.05;;;0.20;;
39930;SDS011;26635;-35.248;149.138;2022-11-23T07:36:31;2.83;;;0.30;;
39930;SDS011;26635;-35.248;149.138;2022-11-23T07:39:02;0.10;;;0.00;;
39930;SDS011;26635;-35.248;149.138;2022-11-23T07:41:35;0.45;;;0.00;;
39930;SDS011;26635;-35.248;149.138;2022-11-23T07:44:05;0.20;;;0.05;;
39930;SDS011;26635;-35.248;149.138;2022-11-23T07:46:36;0.22;;;0.13;;
39930;SDS011;26635;-35.248;149.138;2022-11-23T07:49:08;0.20;;;0.10;;
39930;SDS011;26635;-35.248;149.138;2022-11-23T07:51:38;0.88;;;0.10;;
39930;SDS011;26635;-35.248;149.138;2022-11-23T07:54:09;0.20;;;0.10;;
39930;SDS011;26635;-35.248;149.138;2022-11-23T07:56:49;0.20;;;0.10;;
39930;SDS011;26635;-35.248;149.138;2022-11-23T07:59:25;0.93;;;0.55;;
39930;SDS011;26635;-35.248;149.138;2022-11-23T08:01:58;0.45;;;0.22;;
39930;SDS011;26635;-35.248;149.138;2022-11-23T08:04:41;1.00;;;0.10;;
39930;SDS011;26635;-35.248;149.138;2022-11-23T08:07:11;0.43;;;0.10;;
39930;SDS011;26635;-35.248;149.138;2022-11-23T08:09:45;2.17;;;0.10;;
39930;SDS011;26635;-35.248;149.138;2022-11-23T08:12:16;1.05;;;0.13;;
39930;SDS011;26635;-35.248;149.138;2022-11-23T08:14:47;1.13;;;0.20;;
39930;SDS011;26635;-35.248;149.138;2022-11-23T08:17:18;0.70;;;0.20;;
39930;SDS011;26635;-35.248;149.138;2022-11-23T08:19:49;0.30;;;0.10;;
39930;SDS011;26635;-35.248;149.138;2022-11-23T08:22:20;0.20;;;0.10;;
39930;SDS011;26635;-35.248;149.138;2022-11-23T08:24:58;0.35;;;0.10;;
39930;SDS011;26635;-35.248;149.138;2022-11-23T08:27:29;0.10;;;0.10;;
39930;SDS011;26635;-35.248;149.138;2022-11-23T08:29:59;0.32;;;0.10;;
39930;SDS011;26635;-35.248;149.138;2022-11-23T08:32:31;0.43;;;0.10;;
39930;SDS011;26635;-35.248;149.138;2022-11-23T08:35:03;0.55;;;0.35;;
39930;SDS011;26635;-35.248;149.138;2022-11-23T08:37:37;0.65;;;0.10;;
39930;SDS011;26635;-35.248;149.138;2022-11-23T08:40:09;1.55;;;0.32;;
39930;SDS011;26635;-35.248;149.138;2022-11-23T08:42:51;0.20;;;0.20;;
39930;SDS011;26635;-35.248;149.138;2022-11-23T08:45:24;0.40;;;0.20;;
39930;SDS011;26635;-35.248;149.138;2022-11-23T08:48:02;0.10;;;0.10;;
39930;SDS011;26635;-35.248;149.138;2022-11-23T08:50:40;0.52;;;0.20;;
39930;SDS011;26635;-35.248;149.138;2022-11-23T08:53:16;0.57;;;0.20;;
39930;SDS011;26635;-35.248;149.138;2022-11-23T08:55:49;0.82;;;0.10;;
39930;SDS011;26635;-35.248;149.138;2022-11-23T08:58:20;0.32;;;0.10;;
39930;SDS011;26635;-35.248;149.138;2022-11-23T09:00:51;0.35;;;0.20;;
39930;SDS011;26635;-35.248;149.138;2022-11-23T09:03:24;1.95;;;0.20;;
39930;SDS011;26635;-35.248;149.138;2022-11-23T09:05:58;1.25;;;0.20;;
39930;SDS011;26635;-35.248;149.138;2022-11-23T09:08:30;2.33;;;0.35;;
39930;SDS011;26635;-35.248;149.138;2022-11-23T09:11:06;2.55;;;0.45;;
39930;SDS011;26635;-35.248;149.138;2022-11-23T09:13:43;1.65;;;0.20;;
39930;SDS011;26635;-35.248;149.138;2022-11-23T09:16:18;0.28;;;0.10;;
39930;SDS011;26635;-35.248;149.138;2022-11-23T09:18:56;0.40;;;0.20;;
39930;SDS011;26635;-35.248;149.138;2022-11-23T09:21:39;1.50;;;0.70;;
39930;SDS011;26635;-35.248;149.138;2022-11-23T09:24:13;0.40;;;0.30;;
39930;SDS011;26635;-35.248;149.138;2022-11-23T09:26:47;0.50;;;0.20;;
39930;SDS011;26635;-35.248;149.138;2022-11-23T09:29:18;0.40;;;0.20;;
39930;SDS011;26635;-35.248;149.138;2022-11-23T09:31:51;0.68;;;0.15;;
39930;SDS011;26635;-35.248;149.138;2022-11-23T09:34:25;0.22;;;0.17;;
39930;SDS011;26635;-35.248;149.138;2022-11-23T09:36:57;0.52;;;0.10;;
39930;SDS011;26635;-35.248;149.138;2022-11-23T09:39:27;0.93;;;0.30;;
39930;SDS011;26635;-35.248;149.138;2022-11-23T09:44:47;0.73;;;0.15;;
39930;SDS011;26635;-35.248;149.138;2022-11-23T09:47:33;0.93;;;0.10;;
39930;SDS011;26635;-35.248;149.138;2022-11-23T09:53:31;0.60;;;0.30;;
39930;SDS011;26635;-35.248;149.138;2022-11-23T09:56:42;1.13;;;0.20;;
39930;SDS011;26635;-35.248;149.138;2022-11-23T10:02:30;0.93;;;0.20;;
39930;SDS011;26635;-35.248;149.138;2022-11-23T10:05:21;0.60;;;0.40;;
39930;SDS011;26635;-35.248;149.138;2022-11-23T10:08:00;0.47;;;0.35;;
39930;SDS011;26635;-35.248;149.138;2022-11-23T10:14:07;1.05;;;0.20;;
39930;SDS011;26635;-35.248;149.138;2022-11-23T10:17:13;0.20;;;0.20;;
39930;SDS011;26635;-35.248;149.138;2022-11-23T10:23:02;0.40;;;0.10;;
39930;SDS011;26635;-35.248;149.138;2022-11-23T10:25:38;2.58;;;0.20;;
39930;SDS011;26635;-35.248;149.138;2022-11-23T10:28:28;0.57;;;0.20;;
39930;SDS011;26635;-35.248;149.138;2022-11-23T10:31:13;0.10;;;0.10;;
39930;SDS011;26635;-35.248;149.138;2022-11-23T10:34:11;1.02;;;0.20;;
39930;SDS011;26635;-35.248;149.138;2022-11-23T10:36:43;0.85;;;0.13;;
39930;SDS011;26635;-35.248;149.138;2022-11-23T10:39:23;0.30;;;0.20;;
39930;SDS011;26635;-35.248;149.138;2022-11-23T10:42:00;2.80;;;0.30;;
39930;SDS011;26635;-35.248;149.138;2022-11-23T10:44:40;0.80;;;0.22;;
39930;SDS011;26635;-35.248;149.138;2022-11-23T10:50:24;0.10;;;0.10;;
39930;SDS011;26635;-35.248;149.138;2022-11-23T10:58:24;0.82;;;0.30;;
39930;SDS011;26635;-35.248;149.138;2022-11-23T11:01:12;2.17;;;0.10;;
39930;SDS011;26635;-35.248;149.138;2022-11-23T11:03:55;0.30;;;0.10;;
39930;SDS011;26635;-35.248;149.138;2022-11-23T11:09:16;0.15;;;0.15;;
39930;SDS011;26635;-35.248;149.138;2022-11-23T11:11:50;2.55;;;0.20;;
39930;SDS011;26635;-35.248;149.138;2022-11-23T11:14:24;0.22;;;0.10;;
39930;SDS011;26635;-35.248;149.138;2022-11-23T11:17:09;0.60;;;0.10;;
39930;SDS011;26635;-35.248;149.138;2022-11-23T11:22:35;0.85;;;0.20;;
39930;SDS011;26635;-35.248;149.138;2022-11-23T11:25:36;1.65;;;0.20;;
39930;SDS011;26635;-35.248;149.138;2022-11-23T11:31:01;0.52;;;0.15;;
39930;SDS011;26635;-35.248;149.138;2022-11-23T11:36:21;1.65;;;0.55;;
39930;SDS011;26635;-35.248;149.138;2022-11-23T11:38:53;0.50;;;0.30;;
39930;SDS011;26635;-35.248;149.138;2022-11-23T11:41:44;1.58;;;0.40;;
39930;SDS011;26635;-35.248;149.138;2022-11-23T11:44:23;1.43;;;0.63;;
39930;SDS011;26635;-35.248;149.138;2022-11-23T11:46:58;3.10;;;1.92;;
39930;SDS011;26635;-35.248;149.138;2022-11-23T11:49:48;2.05;;;1.10;;
39930;SDS011;26635;-35.248;149.138;2022-11-23T11:52:27;2.75;;;1.63;;
39930;SDS011;26635;-35.248;149.138;2022-11-23T11:58:02;3.20;;;1.65;;
39930;SDS011;26635;-35.248;149.138;2022-11-23T12:00:39;2.88;;;1.48;;
39930;SDS011;26635;-35.248;149.138;2022-11-23T12:03:35;2.60;;;0.60;;
39930;SDS011;26635;-35.248;149.138;2022-11-23T12:06:25;3.25;;;1.25;;
39930;SDS011;26635;-35.248;149.138;2022-11-23T12:09:13;3.90;;;2.00;;
39930;SDS011;26635;-35.248;149.138;2022-11-23T12:11:51;5.20;;;1.95;;
39930;SDS011;26635;-35.248;149.138;2022-11-23T12:14:24;4.00;;;1.83;;
39930;SDS011;26635;-35.248;149.138;2022-11-23T12:26:08;1.50;;;0.20;;
39930;SDS011;26635;-35.248;149.138;2022-11-23T12:31:42;0.20;;;0.15;;
39930;SDS011;26635;-35.248;149.138;2022-11-23T12:37:35;1.48;;;0.60;;
39930;SDS011;26635;-35.248;149.138;2022-11-23T12:40:42;0.50;;;0.10;;
39930;SDS011;26635;-35.248;149.138;2022-11-23T12:43:59;1.08;;;0.70;;
39930;SDS011;26635;-35.248;149.138;2022-11-23T12:58:43;0.17;;;0.10;;
39930;SDS011;26635;-35.248;149.138;2022-11-23T13:01:30;0.50;;;0.20;;
39930;SDS011;26635;-35.248;149.138;2022-11-23T13:10:44;0.10;;;0.10;;
39930;SDS011;26635;-35.248;149.138;2022-11-23T13:22:37;0.90;;;0.20;;
39930;SDS011;26635;-35.248;149.138;2022-11-23T13:25:21;0.47;;;0.15;;
39930;SDS011;26635;-35.248;149.138;2022-11-23T13:27:58;0.98;;;0.30;;
39930;SDS011;26635;-35.248;149.138;2022-11-23T13:33:35;1.80;;;0.80;;
39930;SDS011;26635;-35.248;149.138;2022-11-23T13:36:12;1.80;;;0.60;;
39930;SDS011;26635;-35.248;149.138;2022-11-23T13:40:01;0.98;;;0.85;;
39930;SDS011;26635;-35.248;149.138;2022-11-23T13:42:30;1.08;;;0.17;;
39930;SDS011;26635;-35.248;149.138;2022-11-23T13:51:10;1.17;;;0.20;;
39930;SDS011;26635;-35.248;149.138;2022-11-23T13:54:31;1.98;;;0.30;;
39930;SDS011;26635;-35.248;149.138;2022-11-23T13:56:58;2.20;;;0.35;;
39930;SDS011;26635;-35.248;149.138;2022-11-23T13:59:35;0.50;;;0.38;;
39930;SDS011;26635;-35.248;149.138;2022-11-23T14:04:40;1.50;;;0.20;;
39930;SDS011;26635;-35.248;149.138;2022-11-23T14:07:27;0.35;;;0.10;;
39930;SDS011;26635;-35.248;149.138;2022-11-23T14:10:17;0.20;;;0.20;;
39930;SDS011;26635;-35.248;149.138;2022-11-23T14:13:17;0.20;;;0.10;;
39930;SDS011;26635;-35.248;149.138;2022-11-23T14:15:59;0.75;;;0.20;;
39930;SDS011;26635;-35.248;149.138;2022-11-23T14:18:53;0.57;;;0.10;;
39930;SDS011;26635;-35.248;149.138;2022-11-23T14:22:31;0.38;;;0.10;;
39930;SDS011;26635;-35.248;149.138;2022-11-23T14:40:28;0.90;;;0.20;;
39930;SDS011;26635;-35.248;149.138;2022-11-23T14:43:14;0.52;;;0.20;;
39930;SDS011;26635;-35.248;149.138;2022-11-23T14:45:51;0.30;;;0.10;;
39930;SDS011;26635;-35.248;149.138;2022-11-23T14:51:04;0.77;;;0.20;;
39930;SDS011;26635;-35.248;149.138;2022-11-23T14:53:41;0.30;;;0.10;;
39930;SDS011;26635;-35.248;149.138;2022-11-23T14:56:19;0.95;;;0.30;;
39930;SDS011;26635;-35.248;149.138;2022-11-23T14:59:03;0.20;;;0.10;;
39930;SDS011;26635;-35.248;149.138;2022-11-23T15:01:51;0.43;;;0.10;;
39930;SDS011;26635;-35.248;149.138;2022-11-23T15:04:27;2.63;;;0.40;;
39930;SDS011;26635;-35.248;149.138;2022-11-23T15:07:13;1.42;;;0.13;;
39930;SDS011;26635;-35.248;149.138;2022-11-23T15:12:51;1.77;;;0.20;;
39930;SDS011;26635;-35.248;149.138;2022-11-23T15:15:23;0.10;;;0.10;;
39930;SDS011;26635;-35.248;149.138;2022-11-23T15:18:05;1.02;;;0.20;;
39930;SDS011;26635;-35.248;149.138;2022-11-23T15:20:43;0.30;;;0.10;;
39930;SDS011;26635;-35.248;149.138;2022-11-23T15:23:34;0.35;;;0.17;;
39930;SDS011;26635;-35.248;149.138;2022-11-23T15:26:29;0.95;;;0.20;;
39930;SDS011;26635;-35.248;149.138;2022-11-23T15:29:34;1.02;;;0.10;;
39930;SDS011;26635;-35.248;149.138;2022-11-23T15:32:21;1.05;;;0.22;;
39930;SDS011;26635;-35.248;149.138;2022-11-23T15:35:06;0.63;;;0.20;;
39930;SDS011;26635;-35.248;149.138;2022-11-23T15:37:43;0.43;;;0.20;;
39930;SDS011;26635;-35.248;149.138;2022-11-23T15:40:17;0.88;;;0.10;;
39930;SDS011;26635;-35.248;149.138;2022-11-23T15:42:48;0.32;;;0.17;;
39930;SDS011;26635;-35.248;149.138;2022-11-23T15:48:11;0.65;;;0.10;;
39930;SDS011;26635;-35.248;149.138;2022-11-23T15:51:03;0.68;;;0.20;;
39930;SDS011;26635;-35.248;149.138;2022-11-23T15:56:24;1.98;;;0.20;;
39930;SDS011;26635;-35.248;149.138;2022-11-23T15:59:02;0.75;;;0.20;;
39930;SDS011;26635;-35.248;149.138;2022-11-23T16:01:49;0.57;;;0.25;;
39930;SDS011;26635;-35.248;149.138;2022-11-23T16:04:27;0.38;;;0.10;;
39930;SDS011;26635;-35.248;149.138;2022-11-23T16:07:20;0.50;;;0.15;;
39930;SDS011;26635;-35.248;149.138;2022-11-23T16:12:47;2.45;;;0.55;;
39930;SDS011;26635;-35.248;149.138;2022-11-23T16:20:56;1.30;;;0.13;;
39930;SDS011;26635;-35.248;149.138;2022-11-23T16:23:46;0.25;;;0.10;;
39930;SDS011;26635;-35.248;149.138;2022-11-23T16:26:31;0.32;;;0.10;;
39930;SDS011;26635;-35.248;149.138;2022-11-23T16:29:15;1.40;;;0.20;;
39930;SDS011;26635;-35.248;149.138;2022-11-23T16:31:58;1.77;;;0.10;;
39930;SDS011;26635;-35.248;149.138;2022-11-23T16:34:32;0.20;;;0.10;;
39930;SDS011;26635;-35.248;149.138;2022-11-23T16:37:02;2.30;;;0.20;;
39930;SDS011;26635;-35.248;149.138;2022-11-23T16:39:33;0.20;;;0.15;;
39930;SDS011;26635;-35.248;149.138;2022-11-23T16:42:03;0.73;;;0.10;;
39930;SDS011;26635;-35.248;149.138;2022-11-23T16:44:38;0.75;;;0.10;;
39930;SDS011;26635;-35.248;149.138;2022-11-23T16:47:17;0.17;;;0.10;;
39930;SDS011;26635;-35.248;149.138;2022-11-23T16:49:52;0.20;;;0.10;;
39930;SDS011;26635;-35.248;149.138;2022-11-23T16:52:23;0.55;;;0.15;;
39930;SDS011;26635;-35.248;149.138;2022-11-23T16:54:53;0.20;;;0.10;;
39930;SDS011;26635;-35.248;149.138;2022-11-23T17:00:04;3.20;;;0.30;;
39930;SDS011;26635;-35.248;149.138;2022-11-23T17:02:39;0.40;;;0.10;;
39930;SDS011;26635;-35.248;149.138;2022-11-23T17:07:45;0.85;;;0.13;;
39930;SDS011;26635;-35.248;149.138;2022-11-23T17:10:16;0.80;;;0.20;;
39930;SDS011;26635;-35.248;149.138;2022-11-23T17:12:49;0.10;;;0.10;;
39930;SDS011;26635;-35.248;149.138;2022-11-23T17:15:24;0.93;;;0.10;;